ENSG/SOG METAR and TAF weather

Enter ICAO airport designator
Station Type Date Time Source
ENSG METAR 2019/02/22 19:50 UTC NOAA

ENSG 221950Z 22006KT 9999 FEW/// BKN019 05/04 Q1034 RMK WIND 3806FT 22020KT


Station Type Date Time Source
ENSG Decoded METAR 2019/02/22 19:50 UTC NOAA

Sogndal / Haukasen, Norway (ENSG) 61-09N 007-08E 497M
Feb 22, 2019 - 02:50 PM EST / 2019.02.22 1950 UTC
Wind: from the SW (220 degrees) at 7 MPH (6 KT):0
Visibility: greater than 7 mile(s):0
Sky conditions: mostly cloudy
Temperature: 41 F (5 C)
Dew Point: 39 F (4 C)
Relative Humidity: 93%
Pressure (altimeter): 30.53 in. Hg (1034 hPa)
ob: ENSG 221950Z 22006KT 9999 FEW/// BKN019 05/04 Q1034 RMK WIND 3806FT 22020KT
cycle: 20

Station Type Date Time Source
ENSG TAF UTC NOAA

Error!


Example: see airport list